Northport, Michigan
Current Conditions -  °F | °C
As of 7:55 PM on Friday 24 Oct 2014 (Local Time) from KCVX Reporting Station
Overcast Overcast  
Wind Chill: 52°   Ceiling: 1400
Heat Index: 52°   Visibility: 10mi
Dew Point: 50°   Wind: 0mph
Humidity: 92%   Direction: NA
Pressure: 29.95"   Gusts: NA
Location:  45.13°N, 85.62°W
Report Text: KCVX 242355Z AUTO 00000KT 10SM OVC014 11/10 A2995 RMK AO2 T01110098 10125 20111
Loading
Personal Weather Stations






























Interactive Weather Map New forecast layout! Learn more

10-Day Weather Forecast

Advertisements
Track Severe Weather on mobile